createdAt,value
2023-03-29T00:03:31.768Z,40.80
2023-03-29T00:08:39.216Z,42.10
2023-03-29T00:13:46.105Z,39.40
2023-03-29T00:18:53.043Z,40.60
2023-03-29T00:24:00.212Z,49.40
2023-03-29T00:29:07.254Z,52.50
2023-03-29T00:34:14.624Z,45.80
2023-03-29T00:39:22.275Z,43.70
2023-03-29T00:45:01.413Z,54.90
2023-03-29T00:50:15.917Z,49.40
2023-03-29T00:55:25.890Z,41.80
2023-03-29T01:00:37.913Z,45.80
2023-03-29T01:05:48.923Z,43.20
2023-03-29T01:10:59.972Z,52.10
2023-03-29T01:16:10.368Z,55.00
2023-03-29T01:21:24.592Z,46.10
2023-03-29T01:26:37.601Z,42.60
2023-03-29T01:31:49.877Z,48.00
2023-03-29T01:37:02.229Z,53.80
2023-03-29T01:47:34.250Z,41.10
2023-03-29T01:52:48.793Z,45.30
2023-03-29T01:57:59.851Z,56.60
2023-03-29T02:03:11.185Z,53.40
2023-03-29T02:08:21.510Z,52.10
2023-03-29T02:13:28.630Z,68.90
2023-03-29T02:18:37.196Z,68.60
2023-03-29T02:23:47.637Z,65.90
2023-03-29T02:28:54.766Z,69.60
2023-03-29T02:34:06.861Z,53.70
2023-03-29T02:39:16.352Z,64.80
2023-03-29T02:44:27.510Z,91.60
2023-03-29T02:49:34.657Z,69.10
2023-03-29T02:54:45.535Z,83.90
2023-03-29T02:59:52.686Z,70.70
2023-03-29T03:04:59.716Z,79.70
2023-03-29T03:10:08.063Z,73.20
2023-03-29T03:15:17.272Z,83.90
2023-03-29T03:20:24.406Z,84.70
2023-03-29T03:25:33.145Z,85.20
2023-03-29T03:30:42.279Z,76.50
2023-03-29T03:36:02.988Z,89.20
2023-03-29T03:41:11.877Z,94.00
2023-03-29T03:46:19.431Z,75.80
2023-03-29T03:51:28.926Z,89.00
2023-03-29T03:56:36.436Z,83.50
2023-03-29T04:01:50.028Z,84.00
2023-03-29T04:07:02.958Z,83.90
2023-03-29T04:12:16.514Z,79.50
2023-03-29T04:17:24.428Z,87.60
2023-03-29T04:22:36.313Z,90.10
2023-03-29T04:27:44.263Z,77.90
2023-03-29T04:33:21.236Z,82.10
2023-03-29T04:38:36.119Z,89.80
2023-03-29T04:43:46.767Z,77.30
2023-03-29T04:49:07.405Z,91.00
2023-03-29T04:54:17.848Z,76.70
2023-03-29T04:59:43.768Z,74.30
2023-03-29T05:05:17.133Z,81.00
2023-03-29T05:10:25.554Z,71.00
2023-03-29T05:15:33.382Z,63.80
2023-03-29T05:20:40.602Z,69.10
2023-03-29T05:25:50.102Z,79.90
2023-03-29T05:31:05.850Z,77.50
2023-03-29T05:36:17.354Z,82.80
2023-03-29T05:41:26.460Z,75.90
2023-03-29T05:46:52.053Z,76.30
2023-03-29T05:51:59.236Z,85.10
2023-03-29T05:57:07.185Z,75.20
2023-03-29T06:02:16.179Z,85.00
2023-03-29T06:07:27.902Z,72.60
2023-03-29T06:12:55.600Z,68.10
2023-03-29T06:18:04.793Z,64.00
2023-03-29T06:23:13.290Z,60.70
2023-03-29T06:28:20.941Z,59.90
2023-03-29T06:33:28.154Z,55.40
2023-03-29T06:38:53.958Z,45.20
2023-03-29T06:44:17.546Z,46.00
2023-03-29T06:49:38.447Z,29.60
2023-03-29T06:55:12.056Z,45.60
2023-03-29T07:00:28.110Z,38.50
2023-03-29T07:05:53.183Z,36.10
2023-03-29T07:11:01.937Z,30.00
2023-03-29T07:16:47.426Z,33.20
2023-03-29T07:22:00.336Z,31.50
2023-03-29T07:27:32.766Z,34.10
2023-03-29T07:32:40.220Z,29.40
2023-03-29T07:38:05.763Z,30.90
2023-03-29T07:43:13.181Z,21.50
2023-03-29T07:48:22.324Z,24.60
2023-03-29T07:53:32.837Z,19.90
2023-03-29T07:58:42.898Z,22.40
2023-03-29T08:03:52.381Z,21.40
2023-03-29T08:09:00.428Z,20.70
2023-03-29T08:14:09.143Z,17.00
2023-03-29T08:19:36.287Z,23.80
2023-03-29T08:24:45.332Z,20.60
2023-03-29T08:29:52.678Z,17.10
2023-03-29T08:35:01.407Z,16.80
2023-03-29T08:40:21.816Z,15.20
2023-03-29T08:45:37.839Z,21.10
2023-03-29T08:50:52.897Z,13.40
2023-03-29T08:56:03.747Z,13.80
2023-03-29T09:01:16.546Z,11.70
2023-03-29T09:06:29.316Z,17.40
2023-03-29T09:12:04.639Z,8.20
2023-03-29T09:17:24.060Z,14.00
2023-03-29T09:22:43.535Z,14.30
2023-03-29T09:27:56.776Z,12.10
2023-03-29T09:33:20.007Z,9.40
2023-03-29T09:38:43.793Z,12.40
2023-03-29T09:43:53.961Z,11.30
2023-03-29T09:49:06.342Z,15.70
2023-03-29T09:54:15.200Z,12.60
2023-03-29T09:59:46.222Z,27.10
2023-03-29T10:04:59.751Z,12.80
2023-03-29T10:10:11.661Z,14.80
2023-03-29T10:15:29.415Z,11.90
2023-03-29T10:20:40.090Z,15.80
2023-03-29T10:25:47.603Z,11.60
2023-03-29T10:30:59.239Z,13.60
2023-03-29T10:36:12.948Z,16.00
2023-03-29T10:41:21.794Z,13.30
2023-03-29T10:46:33.652Z,10.50
2023-03-29T10:51:47.371Z,12.40
2023-03-29T10:56:57.106Z,12.60
2023-03-29T11:02:45.966Z,7.20
2023-03-29T11:08:23.157Z,12.60
2023-03-29T11:13:39.211Z,12.10
2023-03-29T11:19:10.483Z,10.60
2023-03-29T11:24:48.020Z,9.10
2023-03-29T11:30:08.040Z,12.30
2023-03-29T11:35:29.473Z,13.00
2023-03-29T11:40:53.475Z,10.80
2023-03-29T11:46:04.843Z,14.50
2023-03-29T11:56:29.566Z,10.50
2023-03-29T12:01:40.683Z,38.70
2023-03-29T12:06:56.150Z,14.40
2023-03-29T12:12:10.066Z,11.60
2023-03-29T12:17:20.224Z,10.30
2023-03-29T12:22:27.570Z,8.10
2023-03-29T12:27:41.911Z,8.70
2023-03-29T12:33:20.344Z,12.10
2023-03-29T12:38:37.834Z,8.30
2023-03-29T12:44:25.445Z,10.10
2023-03-29T12:49:41.678Z,9.70
2023-03-29T12:54:56.369Z,8.80
2023-03-29T13:00:19.801Z,8.50
2023-03-29T13:05:38.226Z,7.20
2023-03-29T13:10:53.032Z,5.60
2023-03-29T13:16:12.881Z,9.80
2023-03-29T13:21:27.117Z,15.20
2023-03-29T13:26:46.764Z,10.70
2023-03-29T13:31:59.906Z,8.40
2023-03-29T13:37:14.787Z,5.80
2023-03-29T13:42:27.808Z,7.20
2023-03-29T13:48:02.428Z,7.00
2023-03-29T13:53:20.826Z,12.90
2023-03-29T13:58:37.857Z,10.40
2023-03-29T14:03:49.614Z,9.30
2023-03-29T14:08:57.000Z,5.90
2023-03-29T14:14:08.230Z,8.60
2023-03-29T14:19:19.424Z,7.70
2023-03-29T14:24:30.584Z,7.80
2023-03-29T14:29:37.995Z,5.70
2023-03-29T14:34:48.324Z,8.00
2023-03-29T14:39:56.531Z,9.30
2023-03-29T14:45:09.425Z,6.70
2023-03-29T14:50:22.497Z,7.70
2023-03-29T14:55:31.026Z,7.20
2023-03-29T15:00:43.610Z,14.50
2023-03-29T15:05:54.425Z,10.60
2023-03-29T15:16:09.885Z,6.50
2023-03-29T15:21:21.906Z,10.30
2023-03-29T15:26:32.604Z,8.20
2023-03-29T15:31:41.847Z,7.90
2023-03-29T15:36:49.168Z,8.10
2023-03-29T15:41:57.504Z,10.00
2023-03-29T15:47:04.844Z,8.60
2023-03-29T15:52:12.335Z,10.00
2023-03-29T15:57:20.535Z,9.70
2023-03-29T16:02:28.122Z,13.00
2023-03-29T16:07:36.699Z,10.20
2023-03-29T16:12:43.563Z,11.00
2023-03-29T16:17:50.752Z,11.70
2023-03-29T16:22:57.710Z,10.00
2023-03-29T16:28:05.019Z,10.40
2023-03-29T16:33:12.145Z,10.30
2023-03-29T16:38:19.137Z,8.80
2023-03-29T16:43:26.076Z,13.40
2023-03-29T16:48:33.741Z,13.40
2023-03-29T16:53:40.734Z,8.10
2023-03-29T16:58:47.793Z,12.60
2023-03-29T17:03:54.980Z,11.30
2023-03-29T17:09:03.237Z,11.40
2023-03-29T17:14:10.487Z,11.60
2023-03-29T17:19:17.508Z,12.80
2023-03-29T17:24:24.653Z,11.10
2023-03-29T17:29:31.812Z,9.90
2023-03-29T17:34:38.996Z,19.40
2023-03-29T17:39:46.352Z,15.90
2023-03-29T17:44:53.856Z,15.30
2023-03-29T17:50:01.386Z,19.40
2023-03-29T17:55:13.980Z,17.90
2023-03-29T18:00:22.935Z,32.60
2023-03-29T18:05:30.051Z,28.00
2023-03-29T18:10:37.817Z,9.40
2023-03-29T18:15:45.564Z,13.30
2023-03-29T18:20:53.128Z,12.50
2023-03-29T18:26:03.985Z,27.30
2023-03-29T18:31:17.450Z,21.50
2023-03-29T18:36:26.229Z,22.10
2023-03-29T18:41:33.508Z,15.10
2023-03-29T18:46:40.754Z,12.90
2023-03-29T18:51:47.747Z,13.20
2023-03-29T18:56:56.047Z,12.10
2023-03-29T19:02:05.500Z,12.60
2023-03-29T19:07:12.637Z,14.40
2023-03-29T19:12:19.652Z,18.80
2023-03-29T19:17:27.859Z,17.80
2023-03-29T19:22:35.076Z,22.80
2023-03-29T19:27:42.862Z,69.80
2023-03-29T19:32:50.081Z,76.90
2023-03-29T19:37:57.708Z,47.20
2023-03-29T19:43:04.664Z,45.40
2023-03-29T19:48:19.493Z,59.70
2023-03-29T19:53:28.759Z,43.00
2023-03-29T19:58:36.078Z,37.80
2023-03-29T20:03:43.847Z,34.50
2023-03-29T20:08:50.966Z,31.20
2023-03-29T20:13:58.283Z,24.50
2023-03-29T20:19:07.265Z,26.60
2023-03-29T20:24:14.377Z,26.10
2023-03-29T20:29:22.264Z,31.80
2023-03-29T20:34:29.700Z,32.90
2023-03-29T20:39:37.327Z,30.10
2023-03-29T20:44:50.701Z,36.90
2023-03-29T20:49:58.133Z,24.70
2023-03-29T20:55:05.953Z,30.20
2023-03-29T21:00:14.421Z,30.50
2023-03-29T21:05:21.856Z,29.00
2023-03-29T21:10:29.843Z,23.00
2023-03-29T21:15:36.849Z,23.50
2023-03-29T21:20:44.910Z,27.00
2023-03-29T21:25:51.968Z,23.40
2023-03-29T21:30:59.122Z,25.90
2023-03-29T21:36:06.579Z,23.10
2023-03-29T21:41:14.545Z,22.10
2023-03-29T21:46:21.408Z,20.20
2023-03-29T21:51:28.386Z,20.00
2023-03-29T21:56:35.357Z,25.90
2023-03-29T22:01:42.269Z,22.70
2023-03-29T22:06:49.475Z,21.00
2023-03-29T22:11:57.049Z,21.60
2023-03-29T22:17:05.875Z,22.90
2023-03-29T22:22:14.676Z,20.80
2023-03-29T22:27:21.798Z,27.40
2023-03-29T22:32:31.405Z,28.70
2023-03-29T22:37:43.291Z,24.70
2023-03-29T22:47:55.815Z,21.90
2023-03-29T22:53:02.887Z,23.80
2023-03-29T22:58:09.778Z,21.80
2023-03-29T23:03:17.112Z,21.50
2023-03-29T23:08:24.682Z,21.50
2023-03-29T23:13:33.625Z,21.60
2023-03-29T23:18:40.814Z,21.10
2023-03-29T23:23:48.210Z,22.70
2023-03-29T23:28:57.466Z,23.00
2023-03-29T23:34:04.426Z,24.30
2023-03-29T23:39:11.317Z,23.80
2023-03-29T23:44:18.248Z,21.80
2023-03-29T23:49:25.208Z,23.50
2023-03-29T23:54:32.491Z,26.60
2023-03-29T23:59:40.157Z,22.90
